createdAt,value
2023-05-07T00:02:42.767Z,71.00
2023-05-07T00:07:45.524Z,72.27
2023-05-07T00:12:48.032Z,72.23
2023-05-07T00:17:50.200Z,73.24
2023-05-07T00:22:52.483Z,73.31
2023-05-07T00:27:54.620Z,73.37
2023-05-07T00:32:56.938Z,71.70
2023-05-07T00:37:59.429Z,72.37
2023-05-07T00:43:01.578Z,73.84
2023-05-07T00:48:04.757Z,72.81
2023-05-07T00:53:08.581Z,72.93
2023-05-07T00:58:11.129Z,74.66
2023-05-07T01:03:13.390Z,75.59
2023-05-07T01:08:17.853Z,73.80
2023-05-07T01:13:21.761Z,73.69
2023-05-07T01:18:24.528Z,76.62
2023-05-07T01:23:28.932Z,76.74
2023-05-07T01:28:31.280Z,73.82
2023-05-07T01:33:39.496Z,73.49
2023-05-07T01:38:43.641Z,73.85
2023-05-07T01:43:48.283Z,77.81
2023-05-07T01:48:52.000Z,75.94
2023-05-07T01:53:54.898Z,75.01
2023-05-07T01:58:57.140Z,75.69
2023-05-07T02:03:59.483Z,75.29
2023-05-07T02:09:04.604Z,74.26
2023-05-07T02:14:07.167Z,73.80
2023-05-07T02:19:09.482Z,74.61
2023-05-07T02:24:12.108Z,76.75
2023-05-07T02:29:14.603Z,79.39
2023-05-07T02:34:18.329Z,80.51
2023-05-07T02:39:20.823Z,81.36
2023-05-07T02:44:22.922Z,78.19
2023-05-07T02:49:26.993Z,78.38
2023-05-07T02:54:29.580Z,76.34
2023-05-07T02:59:32.165Z,79.85
2023-05-07T03:04:34.563Z,83.79
2023-05-07T03:09:36.948Z,82.33
2023-05-07T03:14:39.428Z,83.36
2023-05-07T03:19:41.582Z,80.09
2023-05-07T03:24:43.743Z,80.28
2023-05-07T03:29:46.112Z,77.51
2023-05-07T03:34:48.504Z,77.64
2023-05-07T03:39:51.016Z,78.28
2023-05-07T03:44:54.195Z,80.76
2023-05-07T03:49:57.185Z,80.46
2023-05-07T03:55:00.780Z,79.73
2023-05-07T04:00:05.624Z,79.54
2023-05-07T04:05:11.689Z,78.40
2023-05-07T04:10:16.272Z,78.71
2023-05-07T04:15:21.043Z,80.49
2023-05-07T04:20:23.235Z,82.24
2023-05-07T04:25:32.117Z,78.24
2023-05-07T04:30:43.288Z,78.68
2023-05-07T04:35:47.387Z,77.22
2023-05-07T04:40:50.755Z,82.22
2023-05-07T04:45:57.103Z,83.26
2023-05-07T04:51:01.972Z,81.42
2023-05-07T04:56:04.521Z,82.05
2023-05-07T05:01:13.823Z,78.25
2023-05-07T05:06:17.167Z,78.13
2023-05-07T05:11:19.338Z,79.90
2023-05-07T05:16:21.831Z,83.96
2023-05-07T05:21:24.761Z,85.86
2023-05-07T05:26:31.127Z,81.30
2023-05-07T05:31:34.902Z,82.75
2023-05-07T05:36:37.489Z,80.61
2023-05-07T05:41:40.191Z,77.96
2023-05-07T05:46:44.185Z,74.92
2023-05-07T05:51:47.222Z,75.11
2023-05-07T05:56:50.658Z,74.86
2023-05-07T06:01:52.982Z,76.10
2023-05-07T06:06:55.647Z,71.93
2023-05-07T06:12:00.680Z,71.80
2023-05-07T06:17:06.491Z,70.37
2023-05-07T06:22:08.839Z,72.18
2023-05-07T06:27:11.734Z,71.03
2023-05-07T06:32:15.387Z,70.61
2023-05-07T06:37:19.703Z,70.69
2023-05-07T06:42:30.935Z,68.42
2023-05-07T06:47:36.344Z,69.58
2023-05-07T06:52:38.662Z,68.82
2023-05-07T06:57:42.124Z,66.21
2023-05-07T07:02:44.873Z,63.71
2023-05-07T07:07:53.893Z,63.77
2023-05-07T07:12:57.090Z,64.32
2023-05-07T07:17:59.448Z,59.79
2023-05-07T07:23:01.878Z,63.11
2023-05-07T07:28:04.200Z,61.98
2023-05-07T07:33:06.962Z,58.83
2023-05-07T07:38:12.140Z,58.04
2023-05-07T07:49:43.620Z,55.48
2023-05-07T07:54:47.146Z,57.15
2023-05-07T07:59:51.280Z,58.52
2023-05-07T08:04:55.112Z,58.14
2023-05-07T08:09:57.546Z,56.01
2023-05-07T08:15:01.058Z,57.24
2023-05-07T08:20:03.584Z,55.47
2023-05-07T08:25:06.627Z,53.05
2023-05-07T08:30:10.427Z,53.57
2023-05-07T08:35:13.275Z,51.42
2023-05-07T08:40:16.385Z,52.10
2023-05-07T08:45:22.101Z,52.06
2023-05-07T08:50:27.213Z,52.08
2023-05-07T08:55:31.311Z,49.06
2023-05-07T09:00:34.744Z,47.39
2023-05-07T09:05:37.711Z,47.17
2023-05-07T09:10:43.235Z,47.38
2023-05-07T09:15:46.287Z,45.21
2023-05-07T09:20:49.078Z,43.80
2023-05-07T09:26:02.732Z,43.23
2023-05-07T09:31:09.760Z,43.14
2023-05-07T09:36:12.355Z,42.73
2023-05-07T09:41:17.166Z,41.24
2023-05-07T09:46:33.603Z,41.30
2023-05-07T09:51:50.516Z,39.89
2023-05-07T09:56:54.815Z,40.39
2023-05-07T10:02:04.811Z,40.08
2023-05-07T10:07:10.992Z,40.03
2023-05-07T10:12:13.980Z,41.97
2023-05-07T10:17:18.985Z,39.84
2023-05-07T10:22:23.604Z,40.22
2023-05-07T10:27:27.157Z,37.35
2023-05-07T10:32:56.435Z,40.13
2023-05-07T10:38:06.117Z,37.07
2023-05-07T10:43:12.502Z,35.68
2023-05-07T10:53:30.762Z,39.50
2023-05-07T10:58:51.990Z,35.42
2023-05-07T11:04:17.097Z,36.79
2023-05-07T11:10:02.256Z,39.65
2023-05-07T11:15:56.532Z,42.65
2023-05-07T11:21:07.547Z,49.10
2023-05-07T11:26:18.880Z,51.12
2023-05-07T11:31:25.087Z,52.14
2023-05-07T11:36:33.505Z,47.26
2023-05-07T11:41:38.606Z,48.98
2023-05-07T11:46:46.164Z,49.11
2023-05-07T11:51:48.960Z,55.67
2023-05-07T11:56:51.164Z,56.04
2023-05-07T12:01:53.388Z,59.95
2023-05-07T12:06:56.959Z,61.53
2023-05-07T12:12:07.115Z,67.13
2023-05-07T12:17:11.102Z,69.68
2023-05-07T12:22:14.607Z,74.21
2023-05-07T12:27:18.579Z,80.51
2023-05-07T12:32:23.294Z,97.11
2023-05-07T12:37:28.603Z,100.00
2023-05-07T12:42:37.814Z,100.00
2023-05-07T12:47:40.518Z,100.00
2023-05-07T12:52:48.178Z,100.00
2023-05-07T12:57:54.233Z,100.00
2023-05-07T13:02:56.582Z,100.00
2023-05-07T13:07:58.959Z,100.00
2023-05-07T13:13:01.244Z,100.00
2023-05-07T13:18:03.801Z,100.00
2023-05-07T13:23:06.102Z,100.00
2023-05-07T13:28:11.334Z,100.00
2023-05-07T13:33:14.551Z,100.00
2023-05-07T13:38:17.416Z,100.00
2023-05-07T13:43:20.247Z,100.00
2023-05-07T13:48:22.519Z,100.00
2023-05-07T13:53:24.780Z,100.00
2023-05-07T13:58:27.137Z,100.00
2023-05-07T14:03:29.359Z,100.00
2023-05-07T14:08:32.067Z,100.00
2023-05-07T14:13:35.517Z,100.00
2023-05-07T14:18:39.785Z,100.00
2023-05-07T14:23:42.096Z,100.00
2023-05-07T14:28:47.574Z,100.00
2023-05-07T14:33:51.664Z,100.00
2023-05-07T14:39:00.279Z,100.00
2023-05-07T14:44:05.071Z,100.00
2023-05-07T14:49:07.943Z,100.00
2023-05-07T14:54:10.322Z,100.00
2023-05-07T14:59:12.951Z,100.00
2023-05-07T15:04:16.073Z,100.00
2023-05-07T15:09:19.261Z,100.00
2023-05-07T15:14:23.191Z,100.00
2023-05-07T15:19:30.075Z,100.00
2023-05-07T15:24:32.669Z,100.00
2023-05-07T15:29:35.011Z,100.00
2023-05-07T15:34:38.324Z,100.00
2023-05-07T15:39:40.784Z,100.00
2023-05-07T15:44:43.291Z,100.00
2023-05-07T15:49:45.478Z,100.00
2023-05-07T15:54:48.601Z,100.00
2023-05-07T15:59:51.353Z,100.00
2023-05-07T16:04:53.792Z,100.00
2023-05-07T16:09:55.948Z,100.00
2023-05-07T16:14:58.170Z,100.00
2023-05-07T16:20:00.536Z,100.00
2023-05-07T16:25:02.828Z,100.00
2023-05-07T16:30:05.759Z,100.00
2023-05-07T16:35:08.669Z,100.00
2023-05-07T16:40:11.606Z,100.00
2023-05-07T16:45:13.890Z,100.00
2023-05-07T16:50:16.407Z,100.00
2023-05-07T16:55:18.947Z,100.00
2023-05-07T17:00:21.187Z,100.00
2023-05-07T17:05:24.469Z,100.00
2023-05-07T17:10:27.050Z,100.00
2023-05-07T17:15:29.197Z,100.00
2023-05-07T17:20:31.488Z,100.00
2023-05-07T17:25:37.228Z,100.00
2023-05-07T17:30:39.304Z,100.00
2023-05-07T17:35:41.425Z,100.00
2023-05-07T17:40:43.634Z,100.00
2023-05-07T17:45:46.109Z,100.00
2023-05-07T17:50:48.554Z,100.00
2023-05-07T17:55:50.837Z,100.00
2023-05-07T18:00:55.605Z,100.00
2023-05-07T18:05:57.881Z,100.00
2023-05-07T18:11:00.217Z,100.00
2023-05-07T18:16:02.578Z,100.00
2023-05-07T18:21:05.555Z,100.00
2023-05-07T18:26:08.581Z,100.00
2023-05-07T18:31:11.137Z,100.00
2023-05-07T18:36:13.396Z,100.00
2023-05-07T18:41:15.522Z,100.00
2023-05-07T18:46:18.140Z,100.00
2023-05-07T18:51:20.652Z,100.00
2023-05-07T18:56:23.162Z,100.00
2023-05-07T19:01:25.493Z,100.00
2023-05-07T19:06:29.429Z,100.00
2023-05-07T19:11:33.448Z,100.00
2023-05-07T19:16:35.785Z,100.00
2023-05-07T19:21:38.173Z,100.00
2023-05-07T19:26:41.305Z,100.00
2023-05-07T19:31:43.460Z,100.00
2023-05-07T19:36:45.825Z,100.00
2023-05-07T19:41:48.502Z,100.00
2023-05-07T19:46:51.318Z,100.00
2023-05-07T19:51:53.917Z,100.00
2023-05-07T19:56:59.814Z,100.00
2023-05-07T20:02:02.032Z,100.00
2023-05-07T20:07:06.001Z,100.00
2023-05-07T20:12:08.472Z,100.00
2023-05-07T20:17:10.735Z,100.00
2023-05-07T20:22:13.121Z,100.00
2023-05-07T20:27:16.356Z,100.00
2023-05-07T20:32:18.951Z,100.00
2023-05-07T20:37:21.496Z,100.00
2023-05-07T20:42:25.302Z,100.00
2023-05-07T20:47:28.050Z,100.00
2023-05-07T20:52:30.217Z,100.00
2023-05-07T20:57:32.407Z,100.00
2023-05-07T21:02:34.590Z,100.00
2023-05-07T21:07:37.273Z,100.00
2023-05-07T21:12:40.056Z,100.00
2023-05-07T21:17:42.295Z,100.00
2023-05-07T21:22:44.402Z,100.00
2023-05-07T21:27:46.985Z,100.00
2023-05-07T21:32:49.807Z,100.00
2023-05-07T21:37:52.024Z,100.00
2023-05-07T21:42:54.608Z,100.00
2023-05-07T21:47:57.117Z,100.00
2023-05-07T21:52:59.222Z,100.00
2023-05-07T21:58:05.501Z,100.00
2023-05-07T22:03:08.435Z,100.00
2023-05-07T22:08:10.581Z,100.00
2023-05-07T22:13:12.840Z,100.00
2023-05-07T22:18:15.165Z,100.00
2023-05-07T22:23:17.674Z,100.00
2023-05-07T22:28:20.106Z,100.00
2023-05-07T22:33:22.356Z,100.00
2023-05-07T22:38:24.688Z,100.00
2023-05-07T22:43:26.815Z,100.00
2023-05-07T22:48:29.845Z,100.00
2023-05-07T22:53:32.009Z,100.00
2023-05-07T22:58:34.494Z,100.00
2023-05-07T23:03:36.920Z,100.00
2023-05-07T23:08:39.306Z,100.00
2023-05-07T23:13:41.677Z,100.00
2023-05-07T23:18:43.824Z,100.00
2023-05-07T23:23:47.980Z,100.00
2023-05-07T23:28:50.424Z,100.00
2023-05-07T23:33:52.501Z,100.00
2023-05-07T23:38:54.602Z,100.00
2023-05-07T23:43:56.740Z,100.00
2023-05-07T23:48:58.836Z,100.00
2023-05-07T23:54:01.167Z,100.00
2023-05-07T23:59:03.498Z,100.00
